Time;durP1;ratioP1;P1;durP2;ratioP2;P2;SDS_P1;SDS_P2;PMS_P1;PMS_P2;Temp;Humidity;BMP_temperature;BMP_pressure;BME280_temperature;BME280_humidity;BME280_pressure;Samples;Min_cycle;Max_cycle;Signal;HPM_P1;HPM_P2
2021/09/09 00:00:19;;;;;;;14.13;10.90;;;;;;;;;;4880587;29;20203;-74
2021/09/09 00:03:24;;;;;;;16.03;10.93;;;;;;;;;;4903334;29;20303;-74
2021/09/09 00:06:28;;;;;;;15.07;12.03;;;;;;;;;;4912298;29;20231;-74
2021/09/09 00:09:33;;;;;;;13.40;10.57;;;;;;;;;;4897224;29;20208;-74
2021/09/09 00:12:38;;;;;;;13.93;10.77;;;;;;;;;;4900420;29;20231;-74
2021/09/09 00:15:43;;;;;;;15.13;13.17;;;;;;;;;;4881231;29;20204;-74
2021/09/09 00:18:48;;;;;;;15.43;13.20;;;;;;;;;;4893523;29;20221;-74
2021/09/09 00:21:54;;;;;;;17.03;13.50;;;;;;;;;;4893184;29;20244;-74
2021/09/09 00:24:59;;;;;;;17.23;12.80;;;;;;;;;;4912909;29;20192;-74
2021/09/09 00:28:04;;;;;;;14.90;11.97;;;;;;;;;;4894114;29;20197;-74
2021/09/09 00:31:09;;;;;;;15.07;11.60;;;;;;;;;;4882655;29;20712;-74
2021/09/09 00:34:14;;;;;;;13.50;10.90;;;;;;;;;;4899856;29;20204;-75
2021/09/09 00:37:21;;;;;;;12.13;10.50;;;;;;;;;;4908096;29;20564;-74
2021/09/09 00:40:25;;;;;;;12.07;10.37;;;;;;;;;;4918998;29;20656;-74
2021/09/09 00:43:29;;;;;;;16.00;11.47;;;;;;;;;;4906984;29;20204;-74
2021/09/09 00:46:33;;;;;;;15.73;10.87;;;;;;;;;;4901060;29;20196;-75
2021/09/09 00:49:40;;;;;;;14.10;11.23;;;;;;;;;;4900029;29;20683;-75
2021/09/09 00:52:47;;;;;;;15.47;11.00;;;;;;;;;;4909513;29;20672;-73
2021/09/09 00:55:52;;;;;;;14.37;11.70;;;;;;;;;;4900809;29;20189;-75
2021/09/09 00:58:56;;;;;;;13.67;11.13;;;;;;;;;;4899041;29;20211;-74
2021/09/09 01:02:01;;;;;;;15.53;10.80;;;;;;;;;;4890938;29;20743;-73
2021/09/09 01:05:07;;;;;;;16.13;10.93;;;;;;;;;;4919426;29;20215;-75
2021/09/09 01:08:10;;;;;;;12.30;10.77;;;;;;;;;;4915221;29;20553;-74
2021/09/09 01:11:15;;;;;;;14.70;11.50;;;;;;;;;;4899563;29;20228;-75
2021/09/09 01:14:19;;;;;;;13.10;10.63;;;;;;;;;;4917293;29;20211;-74
2021/09/09 01:17:23;;;;;;;14.97;12.13;;;;;;;;;;4919151;29;20211;-75
2021/09/09 01:20:27;;;;;;;20.70;11.67;;;;;;;;;;4916035;29;20231;-74
2021/09/09 01:23:31;;;;;;;14.17;11.07;;;;;;;;;;4911783;29;20220;-74
2021/09/09 01:26:48;;;;;;;20.83;12.00;;;;;;;;;;4919000;29;20683;-75
2021/09/09 01:29:52;;;;;;;15.83;12.73;;;;;;;;;;4919479;29;20209;-75
2021/09/09 01:32:56;;;;;;;16.03;10.73;;;;;;;;;;4910970;29;20204;-74
2021/09/09 01:36:00;;;;;;;13.47;11.60;;;;;;;;;;4911849;29;20679;-74
2021/09/09 01:39:05;;;;;;;13.67;10.80;;;;;;;;;;4917791;29;20227;-75
2021/09/09 01:42:09;;;;;;;13.90;11.23;;;;;;;;;;4905682;29;20231;-74
2021/09/09 01:45:13;;;;;;;13.40;11.50;;;;;;;;;;4899702;29;20204;-75
2021/09/09 01:48:17;;;;;;;14.77;12.03;;;;;;;;;;4909085;29;20212;-74
2021/09/09 01:51:21;;;;;;;15.97;11.70;;;;;;;;;;4899764;29;20240;-74
2021/09/09 01:54:25;;;;;;;13.23;11.00;;;;;;;;;;4918123;29;20199;-74
2021/09/09 01:57:29;;;;;;;14.47;12.33;;;;;;;;;;4917871;29;20188;-74
2021/09/09 02:00:33;;;;;;;16.03;12.33;;;;;;;;;;4918007;29;20220;-75
2021/09/09 02:03:37;;;;;;;14.57;12.50;;;;;;;;;;4905977;29;20209;-74
2021/09/09 02:06:42;;;;;;;15.77;13.43;;;;;;;;;;4899414;29;20205;-74
2021/09/09 02:09:46;;;;;;;16.33;12.93;;;;;;;;;;4907211;29;20200;-74
2021/09/09 02:12:51;;;;;;;15.93;12.87;;;;;;;;;;4912119;29;20217;-74
2021/09/09 02:15:55;;;;;;;16.67;12.90;;;;;;;;;;4907755;29;20212;-74
2021/09/09 02:18:59;;;;;;;16.03;13.00;;;;;;;;;;4879781;29;20217;-75
2021/09/09 02:22:04;;;;;;;14.73;12.77;;;;;;;;;;4880664;29;20233;-75
2021/09/09 02:25:08;;;;;;;16.33;12.27;;;;;;;;;;4880364;29;20213;-74
2021/09/09 02:28:12;;;;;;;16.83;12.00;;;;;;;;;;4869148;29;20216;-75
2021/09/09 02:31:16;;;;;;;17.20;12.10;;;;;;;;;;4880618;29;20614;-74
2021/09/09 02:34:21;;;;;;;15.77;12.20;;;;;;;;;;4881625;29;20225;-74
2021/09/09 02:37:24;;;;;;;14.97;12.77;;;;;;;;;;4887009;29;20691;-74
2021/09/09 02:40:29;;;;;;;14.33;11.93;;;;;;;;;;4881837;29;20225;-74
2021/09/09 02:43:32;;;;;;;14.07;12.17;;;;;;;;;;4903009;29;20224;-74
2021/09/09 02:46:36;;;;;;;14.67;11.87;;;;;;;;;;4858322;29;20198;-75
2021/09/09 02:49:41;;;;;;;17.10;12.67;;;;;;;;;;4868726;29;20193;-74
2021/09/09 02:52:45;;;;;;;13.90;11.77;;;;;;;;;;4892493;29;20560;-74
2021/09/09 02:55:49;;;;;;;14.63;12.27;;;;;;;;;;4916329;29;20192;-74
2021/09/09 02:58:53;;;;;;;15.17;12.17;;;;;;;;;;4898723;29;20754;-74
2021/09/09 03:01:57;;;;;;;13.90;11.87;;;;;;;;;;4889718;29;20236;-74
2021/09/09 03:05:01;;;;;;;15.97;12.40;;;;;;;;;;4898601;29;20290;-75
2021/09/09 03:08:05;;;;;;;16.30;11.77;;;;;;;;;;4897944;29;20191;-75
2021/09/09 03:11:09;;;;;;;14.93;11.87;;;;;;;;;;4900492;29;20232;-73
2021/09/09 03:14:13;;;;;;;17.40;12.77;;;;;;;;;;4917532;29;20544;-75
2021/09/09 03:17:17;;;;;;;13.70;11.73;;;;;;;;;;4917086;29;20203;-74
2021/09/09 03:20:21;;;;;;;15.40;12.77;;;;;;;;;;4916108;29;20231;-74
2021/09/09 03:23:25;;;;;;;13.83;12.10;;;;;;;;;;4879095;29;20194;-75
2021/09/09 03:26:30;;;;;;;14.83;12.70;;;;;;;;;;4879601;29;20193;-74
2021/09/09 03:29:34;;;;;;;17.37;12.83;;;;;;;;;;4879794;29;20213;-75
2021/09/09 03:32:38;;;;;;;15.63;13.53;;;;;;;;;;4905089;29;20247;-73
2021/09/09 03:35:42;;;;;;;15.00;12.00;;;;;;;;;;4892835;29;20215;-74
2021/09/09 03:38:45;;;;;;;14.33;12.30;;;;;;;;;;4902754;29;20220;-74
2021/09/09 03:41:49;;;;;;;17.50;12.93;;;;;;;;;;4903513;29;20223;-73
2021/09/09 03:44:53;;;;;;;17.73;12.57;;;;;;;;;;4916476;29;20557;-74
2021/09/09 03:47:58;;;;;;;18.53;12.67;;;;;;;;;;4917222;29;20540;-75
2021/09/09 03:51:02;;;;;;;19.23;12.83;;;;;;;;;;4904502;29;20232;-74
2021/09/09 03:54:06;;;;;;;15.17;12.77;;;;;;;;;;4891463;29;20208;-74
2021/09/09 03:57:10;;;;;;;16.57;12.90;;;;;;;;;;4879611;29;20661;-75
2021/09/09 04:00:15;;;;;;;14.07;12.47;;;;;;;;;;4878570;29;20279;-75
2021/09/09 04:03:19;;;;;;;21.57;12.70;;;;;;;;;;4914199;29;20223;-74
2021/09/09 04:06:24;;;;;;;15.47;12.93;;;;;;;;;;4908904;29;20232;-74
2021/09/09 04:09:27;;;;;;;15.50;12.40;;;;;;;;;;4910121;29;20208;-73
2021/09/09 04:12:32;;;;;;;16.50;12.93;;;;;;;;;;4899829;29;20240;-75
2021/09/09 04:15:36;;;;;;;15.50;12.67;;;;;;;;;;4903069;29;20192;-75
2021/09/09 04:18:40;;;;;;;19.23;12.83;;;;;;;;;;4905107;29;20574;-74
2021/09/09 04:21:44;;;;;;;25.83;13.23;;;;;;;;;;4909510;29;20599;-75
2021/09/09 04:24:48;;;;;;;23.03;12.60;;;;;;;;;;4919299;29;20199;-74
2021/09/09 04:27:53;;;;;;;17.17;13.17;;;;;;;;;;4918790;29;20200;-74
2021/09/09 04:30:57;;;;;;;17.93;12.97;;;;;;;;;;4902731;29;20568;-74
2021/09/09 04:34:01;;;;;;;18.47;13.73;;;;;;;;;;4919172;29;20192;-75
2021/09/09 04:37:05;;;;;;;18.03;13.57;;;;;;;;;;4892324;29;20216;-74
2021/09/09 04:40:10;;;;;;;16.73;12.87;;;;;;;;;;4903478;29;20224;-74
2021/09/09 04:43:14;;;;;;;18.57;12.80;;;;;;;;;;4920253;29;20215;-74
2021/09/09 04:46:19;;;;;;;16.90;12.67;;;;;;;;;;4882407;29;20542;-74
2021/09/09 04:49:23;;;;;;;19.90;13.30;;;;;;;;;;4903108;29;20192;-74
2021/09/09 04:52:27;;;;;;;17.53;13.37;;;;;;;;;;4897548;29;20228;-74
2021/09/09 04:55:31;;;;;;;17.53;14.00;;;;;;;;;;4898469;29;20192;-73
2021/09/09 04:58:35;;;;;;;17.70;14.50;;;;;;;;;;4909946;23;20244;-73
2021/09/09 05:01:40;;;;;;;18.80;14.20;;;;;;;;;;4890924;29;20242;-75
2021/09/09 05:04:44;;;;;;;19.67;13.83;;;;;;;;;;4878892;29;20201;-74
2021/09/09 05:07:48;;;;;;;20.60;16.23;;;;;;;;;;4880748;29;20198;-73
2021/09/09 05:10:52;;;;;;;21.10;17.27;;;;;;;;;;4881429;29;20241;-74
2021/09/09 05:13:56;;;;;;;20.73;16.53;;;;;;;;;;4899204;29;20208;-74
2021/09/09 05:17:00;;;;;;;20.40;15.07;;;;;;;;;;4885771;29;20592;-74
2021/09/09 05:20:06;;;;;;;20.17;14.87;;;;;;;;;;4869780;29;20198;-74
2021/09/09 05:23:10;;;;;;;21.27;15.83;;;;;;;;;;4882400;29;20201;-75
2021/09/09 05:26:14;;;;;;;28.90;17.10;;;;;;;;;;4896786;29;20204;-74
2021/09/09 05:29:18;;;;;;;26.10;16.87;;;;;;;;;;4899254;29;20195;-74
2021/09/09 05:32:22;;;;;;;31.63;16.47;;;;;;;;;;4894495;29;20225;-74
2021/09/09 05:35:26;;;;;;;23.50;16.00;;;;;;;;;;4879948;29;20213;-73
2021/09/09 05:38:30;;;;;;;29.67;17.67;;;;;;;;;;4880742;29;20197;-73
2021/09/09 05:41:34;;;;;;;32.00;16.33;;;;;;;;;;4897777;29;20236;-73
2021/09/09 05:44:38;;;;;;;30.70;16.87;;;;;;;;;;4894048;29;20569;-74
2021/09/09 05:47:45;;;;;;;25.63;15.53;;;;;;;;;;4896497;29;20212;-73
2021/09/09 05:50:49;;;;;;;22.83;16.90;;;;;;;;;;4899691;29;20236;-73
2021/09/09 05:53:53;;;;;;;25.90;15.37;;;;;;;;;;4876938;29;20201;-74
2021/09/09 05:56:57;;;;;;;23.07;16.10;;;;;;;;;;4889543;29;20197;-74
2021/09/09 06:00:01;;;;;;;28.33;16.87;;;;;;;;;;4861721;29;20205;-73
2021/09/09 06:03:06;;;;;;;26.10;17.63;;;;;;;;;;4873241;29;20197;-74
2021/09/09 06:06:11;;;;;;;26.93;17.93;;;;;;;;;;4885799;29;20198;-74
2021/09/09 06:09:16;;;;;;;27.20;17.27;;;;;;;;;;4883635;29;20204;-74
2021/09/09 06:12:26;;;;;;;25.57;20.60;;;;;;;;;;4896148;29;20228;-74
2021/09/09 06:15:30;;;;;;;31.97;24.30;;;;;;;;;;4889687;29;20201;-74
2021/09/09 06:18:35;;;;;;;30.70;24.50;;;;;;;;;;4888851;29;20704;-74
2021/09/09 06:21:39;;;;;;;32.37;25.47;;;;;;;;;;4874610;29;20229;-74
2021/09/09 06:24:44;;;;;;;35.73;24.73;;;;;;;;;;4895107;29;20577;-75
2021/09/09 06:27:48;;;;;;;34.23;24.77;;;;;;;;;;4898976;29;20209;-74
2021/09/09 06:30:52;;;;;;;30.80;24.17;;;;;;;;;;4898004;29;20731;-75
2021/09/09 06:33:56;;;;;;;32.33;24.30;;;;;;;;;;4883871;29;20205;-74
2021/09/09 06:37:00;;;;;;;28.97;23.57;;;;;;;;;;4881557;29;20216;-74
2021/09/09 06:40:05;;;;;;;31.13;23.90;;;;;;;;;;4892390;29;20197;-75
2021/09/09 06:43:11;;;;;;;33.47;22.93;;;;;;;;;;4862073;29;20202;-74
2021/09/09 06:46:15;;;;;;;26.33;21.80;;;;;;;;;;4861855;29;20209;-75
2021/09/09 06:49:18;;;;;;;24.83;19.17;;;;;;;;;;4861775;29;20660;-74
2021/09/09 06:52:23;;;;;;;27.90;20.03;;;;;;;;;;4878123;29;20736;-75
2021/09/09 06:55:27;;;;;;;24.50;19.03;;;;;;;;;;4879618;29;20205;-75
2021/09/09 06:58:31;;;;;;;25.23;18.30;;;;;;;;;;4882443;29;20228;-74
2021/09/09 07:01:35;;;;;;;22.13;17.33;;;;;;;;;;4898739;29;20232;-74
2021/09/09 07:04:39;;;;;;;18.57;14.90;;;;;;;;;;4896366;29;20193;-75
2021/09/09 07:07:43;;;;;;;21.43;15.00;;;;;;;;;;4860497;29;20553;-74
2021/09/09 07:10:47;;;;;;;18.77;13.47;;;;;;;;;;4879583;29;20244;-75
2021/09/09 07:13:51;;;;;;;16.00;11.87;;;;;;;;;;4880005;29;20189;-75
2021/09/09 07:16:55;;;;;;;20.07;12.30;;;;;;;;;;4879174;29;20189;-75
2021/09/09 07:19:59;;;;;;;16.03;12.30;;;;;;;;;;4879642;29;20217;-74
2021/09/09 07:23:04;;;;;;;14.53;11.40;;;;;;;;;;4878988;29;20201;-74
2021/09/09 07:26:08;;;;;;;13.30;10.93;;;;;;;;;;4878794;29;20193;-74
2021/09/09 07:29:15;;;;;;;14.73;11.57;;;;;;;;;;4879864;29;20197;-74
2021/09/09 07:32:19;;;;;;;11.80;9.43;;;;;;;;;;4879554;29;20236;-74
2021/09/09 07:35:23;;;;;;;15.47;9.73;;;;;;;;;;4868329;29;20183;-74
2021/09/09 07:38:27;;;;;;;15.23;8.57;;;;;;;;;;4880285;29;20190;-74
2021/09/09 07:41:32;;;;;;;10.20;7.70;;;;;;;;;;4880743;29;20582;-74
2021/09/09 07:44:36;;;;;;;8.77;7.87;;;;;;;;;;4885928;29;20182;-74
2021/09/09 07:47:40;;;;;;;11.37;9.57;;;;;;;;;;4883532;29;20185;-74
2021/09/09 07:50:45;;;;;;;11.23;9.27;;;;;;;;;;4883192;29;20238;-75
2021/09/09 07:53:50;;;;;;;12.33;9.67;;;;;;;;;;4882614;29;20190;-75
2021/09/09 07:56:54;;;;;;;14.83;9.40;;;;;;;;;;4882318;29;20206;-76
2021/09/09 07:59:58;;;;;;;16.77;10.20;;;;;;;;;;4883084;29;20646;-75
2021/09/09 08:03:02;;;;;;;11.27;9.87;;;;;;;;;;4882872;29;20204;-75
2021/09/09 08:06:06;;;;;;;12.67;9.90;;;;;;;;;;4883171;29;20194;-75
2021/09/09 08:09:11;;;;;;;12.97;9.60;;;;;;;;;;4882837;29;20190;-75
2021/09/09 08:12:15;;;;;;;12.73;8.70;;;;;;;;;;4882411;29;20230;-75
2021/09/09 08:15:20;;;;;;;16.27;10.17;;;;;;;;;;4882187;29;20186;-75
2021/09/09 08:18:24;;;;;;;12.33;9.53;;;;;;;;;;4882666;29;20185;-75
2021/09/09 08:21:29;;;;;;;22.60;10.63;;;;;;;;;;4882992;29;20217;-75
2021/09/09 08:24:33;;;;;;;11.57;7.27;;;;;;;;;;4882840;29;20198;-74
2021/09/09 08:27:38;;;;;;;6.27;5.67;;;;;;;;;;4882743;29;20186;-75
2021/09/09 08:30:42;;;;;;;6.53;5.57;;;;;;;;;;4881769;29;20230;-75
2021/09/09 08:33:46;;;;;;;15.97;6.07;;;;;;;;;;4882239;29;20202;-75
2021/09/09 08:36:50;;;;;;;10.27;5.93;;;;;;;;;;4882302;29;20548;-75
2021/09/09 08:39:54;;;;;;;7.77;6.03;;;;;;;;;;4881670;29;20208;-74
2021/09/09 08:42:58;;;;;;;8.10;6.00;;;;;;;;;;4882201;29;20196;-75
2021/09/09 08:46:03;;;;;;;7.90;5.87;;;;;;;;;;4897642;29;20201;-75
2021/09/09 08:49:14;;;;;;;7.07;6.10;;;;;;;;;;4900267;29;20188;-75
2021/09/09 08:52:25;;;;;;;13.53;6.47;;;;;;;;;;4887455;29;20229;-75
2021/09/09 08:55:29;;;;;;;6.90;5.97;;;;;;;;;;4851319;29;20185;-76
2021/09/09 08:58:36;;;;;;;10.00;6.03;;;;;;;;;;4878328;29;20214;-74
2021/09/09 09:01:57;;;;;;;7.78;5.90;;;;;;;;;;4881782;29;20219;-75
2021/09/09 09:05:04;;;;;;;8.35;5.70;;;;;;;;;;4859899;29;20525;-75
2021/09/09 09:08:08;;;;;;;7.85;6.15;;;;;;;;;;4881326;29;20657;-75
2021/09/09 09:11:20;;;;;;;9.82;6.30;;;;;;;;;;4880763;29;20575;-75
2021/09/09 09:14:25;;;;;;;9.40;6.55;;;;;;;;;;4880664;29;20541;-75
2021/09/09 09:17:30;;;;;;;11.25;6.50;;;;;;;;;;4881872;29;20207;-75
2021/09/09 09:20:49;;;;;;;10.48;6.00;;;;;;;;;;4881474;29;20210;-76
2021/09/09 09:23:56;;;;;;;11.05;6.22;;;;;;;;;;4870319;29;20189;-76
2021/09/09 09:27:04;;;;;;;9.25;7.13;;;;;;;;;;4881680;29;20572;-76
2021/09/09 09:30:09;;;;;;;8.65;6.60;;;;;;;;;;4880882;29;20185;-75
2021/09/09 09:33:29;;;;;;;9.23;6.60;;;;;;;;;;4881578;29;20195;-75
2021/09/09 09:36:36;;;;;;;6.38;5.65;;;;;;;;;;4881580;29;20190;-75
2021/09/09 09:39:44;;;;;;;5.93;5.32;;;;;;;;;;4881470;29;20182;-75
2021/09/09 09:42:48;;;;;;;10.52;5.88;;;;;;;;;;4881455;29;20190;-75
2021/09/09 09:45:54;;;;;;;8.77;6.07;;;;;;;;;;4880754;29;20665;-76
2021/09/09 09:49:16;;;;;;;8.52;5.55;;;;;;;;;;4880279;29;20642;-76
2021/09/09 09:52:26;;;;;;;8.80;7.07;;;;;;;;;;4881556;29;20226;-76
2021/09/09 09:55:41;;;;;;;8.60;6.60;;;;;;;;;;4884933;29;20535;-75
2021/09/09 09:58:45;;;;;;;8.93;6.25;;;;;;;;;;4888146;29;20205;-76
2021/09/09 10:01:49;;;;;;;6.47;5.25;;;;;;;;;;4884589;29;20218;-76
2021/09/09 10:04:57;;;;;;;11.95;6.43;;;;;;;;;;4861750;29;20191;-76
2021/09/09 10:08:02;;;;;;;9.48;5.13;;;;;;;;;;4861614;29;20188;-75
2021/09/09 10:11:06;;;;;;;8.10;5.22;;;;;;;;;;4869330;29;20709;-76
2021/09/09 10:14:22;;;;;;;8.75;5.18;;;;;;;;;;4869389;29;20190;-75
2021/09/09 10:17:27;;;;;;;5.95;5.10;;;;;;;;;;4898881;29;20202;-78
2021/09/09 10:20:37;;;;;;;9.88;4.57;;;;;;;;;;4888188;29;20202;-78
2021/09/09 10:23:41;;;;;;;10.57;5.20;;;;;;;;;;4893459;29;20187;-78
2021/09/09 10:26:48;;;;;;;6.22;5.05;;;;;;;;;;4896270;29;20205;-79
2021/09/09 10:30:05;;;;;;;10.07;5.60;;;;;;;;;;4900699;29;20202;-77
2021/09/09 10:33:27;;;;;;;6.13;5.15;;;;;;;;;;4882628;29;20211;-78
2021/09/09 10:36:41;;;;;;;8.05;5.10;;;;;;;;;;4882604;29;20203;-78
2021/09/09 10:39:48;;;;;;;7.50;5.28;;;;;;;;;;4864618;29;20202;-78
2021/09/09 10:42:52;;;;;;;6.80;5.15;;;;;;;;;;4863079;29;20219;-78
2021/09/09 10:46:01;;;;;;;8.88;5.28;;;;;;;;;;4884206;29;20190;-78
2021/09/09 10:49:13;;;;;;;8.18;5.32;;;;;;;;;;4881010;29;20669;-78
2021/09/09 10:52:17;;;;;;;6.93;5.28;;;;;;;;;;4881915;29;20218;-78
2021/09/09 10:55:26;;;;;;;6.03;5.53;;;;;;;;;;4883011;29;20209;-79
2021/09/09 10:58:30;;;;;;;5.72;5.20;;;;;;;;;;4910780;23;20242;-87
2021/09/09 11:01:34;;;;;;;6.88;5.43;;;;;;;;;;4876464;29;20214;-88
2021/09/09 11:04:38;;;;;;;6.38;5.18;;;;;;;;;;4840085;29;20191;-87
2021/09/09 11:07:43;;;;;;;7.85;5.78;;;;;;;;;;4861184;29;20222;-87
2021/09/09 11:10:48;;;;;;;7.47;5.82;;;;;;;;;;4856910;29;20202;-87
2021/09/09 11:14:06;;;;;;;9.55;5.47;;;;;;;;;;4868279;29;20191;-88
2021/09/09 11:17:15;;;;;;;9.13;5.30;;;;;;;;;;4868659;29;20663;-88
2021/09/09 11:20:29;;;;;;;8.00;5.47;;;;;;;;;;4868695;29;20631;-88
2021/09/09 11:23:35;;;;;;;6.30;5.38;;;;;;;;;;4869382;29;20194;-88
2021/09/09 11:26:41;;;;;;;12.40;6.03;;;;;;;;;;4869621;29;20187;-88
2021/09/09 11:29:57;;;;;;;7.80;5.13;;;;;;;;;;4886026;29;20197;-87
2021/09/09 11:33:05;;;;;;;8.85;4.70;;;;;;;;;;4860630;29;20191;-87
2021/09/09 11:36:11;;;;;;;6.07;4.90;;;;;;;;;;4876504;29;20206;-87
2021/09/09 11:39:19;;;;;;;6.68;5.28;;;;;;;;;;4858386;29;20238;-88
2021/09/09 11:42:24;;;;;;;7.28;5.15;;;;;;;;;;4878890;29;20214;-88
2021/09/09 11:45:29;;;;;;;7.80;5.18;;;;;;;;;;4869553;29;20183;-87
2021/09/09 11:48:34;;;;;;;7.70;5.55;;;;;;;;;;4864659;29;20229;-87
2021/09/09 11:51:45;;;;;;;17.73;5.93;;;;;;;;;;4873171;29;20194;-88
2021/09/09 11:54:49;;;;;;;7.05;5.15;;;;;;;;;;4868165;29;20658;-87
2021/09/09 11:57:53;;;;;;;6.65;4.85;;;;;;;;;;4879219;29;20230;-88
2021/09/09 12:01:00;;;;;;;6.05;5.03;;;;;;;;;;4868743;29;20187;-88
2021/09/09 12:04:05;;;;;;;7.32;4.82;;;;;;;;;;4878914;29;20179;-87
2021/09/09 12:07:18;;;;;;;12.50;4.57;;;;;;;;;;4878542;29;20190;-87
2021/09/09 12:10:22;;;;;;;5.28;4.47;;;;;;;;;;4868354;29;20190;-87
2021/09/09 12:13:30;;;;;;;8.40;4.68;;;;;;;;;;4867869;29;20241;-87
2021/09/09 12:16:35;;;;;;;7.63;4.47;;;;;;;;;;4860593;29;20187;-87
2021/09/09 12:19:56;;;;;;;12.23;5.47;;;;;;;;;;4849770;29;20187;-88
2021/09/09 12:23:02;;;;;;;5.85;4.25;;;;;;;;;;4872210;29;20210;-87
2021/09/09 12:26:17;;;;;;;7.25;4.82;;;;;;;;;;4868152;29;20187;-88
2021/09/09 12:29:21;;;;;;;5.75;4.40;;;;;;;;;;4856556;29;20230;-88
2021/09/09 12:32:27;;;;;;;4.90;4.50;;;;;;;;;;4882192;29;20646;-88
2021/09/09 12:35:32;;;;;;;13.80;5.00;;;;;;;;;;4871643;29;20194;-88
2021/09/09 12:38:44;;;;;;;4.90;4.38;;;;;;;;;;4874035;29;20217;-88
2021/09/09 12:41:48;;;;;;;9.73;5.03;;;;;;;;;;4890164;29;20521;-88
2021/09/09 12:44:53;;;;;;;33.35;5.50;;;;;;;;;;4863624;29;20187;-88
2021/09/09 12:48:09;;;;;;;6.38;4.40;;;;;;;;;;4863311;29;20219;-88
2021/09/09 12:51:13;;;;;;;4.72;4.32;;;;;;;;;;4860178;29;20195;-88
2021/09/09 12:54:19;;;;;;;6.30;5.00;;;;;;;;;;4879600;29;20198;-87
2021/09/09 12:57:30;;;;;;;10.65;4.88;;;;;;;;;;4873391;29;20661;-87
2021/09/09 13:00:34;;;;;;;10.95;5.35;;;;;;;;;;4859455;29;20199;-88
2021/09/09 13:03:38;;;;;;;13.75;5.30;;;;;;;;;;4870944;29;20210;-87
2021/09/09 13:06:43;;;;;;;5.60;4.70;;;;;;;;;;4871027;29;20187;-88
2021/09/09 13:09:47;;;;;;;6.03;4.88;;;;;;;;;;4875835;29;20672;-88
2021/09/09 13:12:55;;;;;;;7.43;5.00;;;;;;;;;;4878131;29;20209;-87
2021/09/09 13:16:00;;;;;;;5.35;4.22;;;;;;;;;;4865718;29;20530;-88
2021/09/09 13:19:04;;;;;;;6.60;4.63;;;;;;;;;;4881177;29;20552;-88
2021/09/09 13:22:09;;;;;;;9.00;4.63;;;;;;;;;;4865867;29;20214;-87
2021/09/09 13:25:13;;;;;;;6.95;4.60;;;;;;;;;;4870575;29;20202;-87
2021/09/09 13:28:17;;;;;;;6.50;4.20;;;;;;;;;;4870733;29;20230;-87
2021/09/09 13:31:23;;;;;;;6.80;4.40;;;;;;;;;;4870726;29;20191;-87
2021/09/09 13:34:27;;;;;;;4.55;4.03;;;;;;;;;;4880311;29;20181;-88
2021/09/09 13:37:31;;;;;;;6.35;4.45;;;;;;;;;;4863764;29;20543;-88
2021/09/09 13:40:35;;;;;;;10.80;4.50;;;;;;;;;;4869739;29;20552;-88
2021/09/09 13:43:39;;;;;;;15.38;4.78;;;;;;;;;;4881720;29;20221;-88
2021/09/09 13:46:43;;;;;;;7.05;4.18;;;;;;;;;;4851724;29;20183;-87
2021/09/09 13:49:48;;;;;;;8.23;4.28;;;;;;;;;;4865038;29;20193;-88
2021/09/09 13:52:54;;;;;;;6.28;4.30;;;;;;;;;;4864430;29;20194;-88
2021/09/09 13:55:59;;;;;;;5.22;4.22;;;;;;;;;;4882615;29;20183;-87
2021/09/09 13:59:03;;;;;;;5.35;4.25;;;;;;;;;;4881501;29;20234;-88
2021/09/09 14:02:07;;;;;;;10.38;4.70;;;;;;;;;;4869849;29;20190;-87
2021/09/09 14:05:12;;;;;;;4.85;4.35;;;;;;;;;;4880625;29;20183;-87
2021/09/09 14:08:17;;;;;;;8.65;4.50;;;;;;;;;;4874220;29;20222;-87
2021/09/09 14:11:21;;;;;;;9.40;4.90;;;;;;;;;;4869765;29;20195;-84
2021/09/09 14:14:24;;;;;;;7.72;4.45;;;;;;;;;;4880328;29;20174;-85
2021/09/09 14:17:29;;;;;;;9.90;4.57;;;;;;;;;;4880024;29;20194;-85
2021/09/09 14:20:32;;;;;;;7.43;3.95;;;;;;;;;;4869578;29;20191;-84
2021/09/09 14:23:37;;;;;;;5.00;3.67;;;;;;;;;;4869669;29;20219;-85
2021/09/09 14:26:42;;;;;;;9.05;4.10;;;;;;;;;;4880037;29;20634;-85
2021/09/09 14:29:46;;;;;;;4.13;3.70;;;;;;;;;;4869364;29;20194;-85
2021/09/09 14:32:49;;;;;;;7.75;4.10;;;;;;;;;;4880207;29;20186;-85
2021/09/09 14:35:54;;;;;;;4.60;4.20;;;;;;;;;;4879930;29;20187;-84
2021/09/09 14:38:58;;;;;;;8.20;4.63;;;;;;;;;;4869036;29;20230;-85
2021/09/09 14:42:02;;;;;;;7.28;4.38;;;;;;;;;;4869691;29;20195;-84
2021/09/09 14:45:07;;;;;;;10.43;4.88;;;;;;;;;;4869168;29;20191;-84
2021/09/09 14:48:11;;;;;;;4.78;4.28;;;;;;;;;;4880918;29;20226;-85
2021/09/09 14:51:18;;;;;;;7.05;4.45;;;;;;;;;;4860758;29;20199;-84
2021/09/09 14:54:22;;;;;;;9.80;4.95;;;;;;;;;;4861159;29;20179;-86
2021/09/09 14:57:26;;;;;;;6.18;4.72;;;;;;;;;;4864890;29;20534;-85
2021/09/09 15:00:30;;;;;;;7.00;4.70;;;;;;;;;;4858468;29;20194;-85
2021/09/09 15:03:34;;;;;;;7.82;4.70;;;;;;;;;;4887622;29;20216;-84
2021/09/09 15:06:38;;;;;;;10.57;5.13;;;;;;;;;;4898236;29;20184;-84
2021/09/09 15:09:42;;;;;;;5.05;4.40;;;;;;;;;;4863392;29;20193;-85
2021/09/09 15:12:47;;;;;;;4.63;4.07;;;;;;;;;;4869943;29;20630;-84
2021/09/09 15:15:51;;;;;;;7.15;4.57;;;;;;;;;;4869857;29;20189;-85
2021/09/09 15:18:56;;;;;;;6.13;4.40;;;;;;;;;;4850654;29;20228;-85
2021/09/09 15:22:01;;;;;;;5.65;4.65;;;;;;;;;;4850021;29;20195;-84
2021/09/09 15:25:06;;;;;;;8.95;4.68;;;;;;;;;;4849245;29;20205;-85
2021/09/09 15:28:10;;;;;;;8.93;4.82;;;;;;;;;;4872762;29;20225;-88
2021/09/09 15:31:14;;;;;;;5.35;4.60;;;;;;;;;;4864651;29;20195;-89
2021/09/09 15:34:19;;;;;;;5.75;4.57;;;;;;;;;;4860948;29;20183;-88
2021/09/09 15:37:26;;;;;;;6.65;4.90;;;;;;;;;;4867731;29;20530;-89
2021/09/09 15:40:30;;;;;;;5.13;4.60;;;;;;;;;;4866594;29;20199;-88
2021/09/09 15:43:34;;;;;;;6.47;3.85;;;;;;;;;;4874714;29;20691;-88
2021/09/09 15:46:39;;;;;;;6.45;4.03;;;;;;;;;;4871892;29;20211;-88
2021/09/09 15:49:43;;;;;;;5.90;3.90;;;;;;;;;;4836889;29;20213;-88
2021/09/09 15:52:47;;;;;;;6.68;3.90;;;;;;;;;;4861693;29;20189;-88
2021/09/09 15:56:14;;;;;;;7.22;4.57;;;;;;;;;;4847184;29;20181;-89
2021/09/09 15:59:17;;;;;;;7.63;3.63;;;;;;;;;;4848042;29;20232;-87
2021/09/09 16:02:22;;;;;;;4.30;3.65;;;;;;;;;;4876063;29;20194;-86
2021/09/09 16:05:26;;;;;;;4.07;3.60;;;;;;;;;;4888263;29;20210;-87
2021/09/09 16:08:31;;;;;;;11.77;3.97;;;;;;;;;;4875136;29;20225;-87
2021/09/09 16:11:35;;;;;;;7.90;3.95;;;;;;;;;;4897673;29;20193;-86
2021/09/09 16:14:40;;;;;;;5.97;3.87;;;;;;;;;;4887979;29;20186;-87
2021/09/09 16:17:44;;;;;;;5.47;3.53;;;;;;;;;;4872804;29;20232;-87
2021/09/09 16:20:50;;;;;;;4.13;3.50;;;;;;;;;;4887961;29;20187;-86
2021/09/09 16:23:54;;;;;;;6.93;3.67;;;;;;;;;;4871357;29;20763;-86
2021/09/09 16:26:59;;;;;;;7.40;4.00;;;;;;;;;;4878381;29;20547;-87
2021/09/09 16:30:03;;;;;;;10.60;3.93;;;;;;;;;;4870877;29;20201;-87
2021/09/09 16:33:08;;;;;;;10.67;4.03;;;;;;;;;;4875456;29;20564;-86
2021/09/09 16:36:13;;;;;;;8.60;3.97;;;;;;;;;;4869102;29;20203;-87
2021/09/09 16:39:17;;;;;;;15.47;4.73;;;;;;;;;;4870046;29;20637;-87
2021/09/09 16:42:22;;;;;;;9.63;4.07;;;;;;;;;;4858211;29;20203;-86
2021/09/09 16:45:26;;;;;;;12.00;4.17;;;;;;;;;;4869314;29;20682;-87
2021/09/09 16:48:30;;;;;;;6.67;4.90;;;;;;;;;;4885561;29;20221;-87
2021/09/09 16:51:35;;;;;;;9.00;4.70;;;;;;;;;;4880165;29;20653;-86
2021/09/09 16:54:39;;;;;;;8.67;4.60;;;;;;;;;;4863645;29;20195;-87
2021/09/09 16:57:47;;;;;;;9.33;4.80;;;;;;;;;;4869114;29;20232;-86
2021/09/09 17:00:52;;;;;;;11.57;4.80;;;;;;;;;;4868948;29;20666;-87
2021/09/09 17:03:58;;;;;;;6.20;4.43;;;;;;;;;;4857561;29;20536;-86
2021/09/09 17:07:03;;;;;;;9.10;5.03;;;;;;;;;;4876389;29;20214;-88
2021/09/09 17:10:08;;;;;;;12.17;5.53;;;;;;;;;;4909255;23;20237;-77
2021/09/09 17:13:15;;;;;;;5.87;5.27;;;;;;;;;;4842281;29;20273;-77
2021/09/09 17:16:20;;;;;;;7.23;4.97;;;;;;;;;;4861153;29;20535;-76
2021/09/09 17:19:24;;;;;;;7.60;4.83;;;;;;;;;;4861694;29;20202;-76
2021/09/09 17:22:28;;;;;;;8.27;5.60;;;;;;;;;;4874577;29;20706;-76
2021/09/09 17:25:32;;;;;;;10.67;5.37;;;;;;;;;;4880963;29;20193;-76
2021/09/09 17:28:36;;;;;;;7.37;5.37;;;;;;;;;;4863216;29;20664;-76
2021/09/09 17:31:40;;;;;;;7.07;5.47;;;;;;;;;;4870275;29;20233;-76
2021/09/09 17:34:44;;;;;;;6.17;5.57;;;;;;;;;;4869954;29;20206;-76
2021/09/09 17:37:49;;;;;;;8.33;5.70;;;;;;;;;;4880923;29;20195;-76
2021/09/09 17:40:53;;;;;;;8.77;5.00;;;;;;;;;;4844507;29;20235;-76
2021/09/09 17:43:57;;;;;;;9.73;5.73;;;;;;;;;;4855039;29;20218;-76
2021/09/09 17:47:01;;;;;;;5.87;5.27;;;;;;;;;;4862724;29;20183;-76
2021/09/09 17:50:06;;;;;;;6.43;5.67;;;;;;;;;;4851742;29;20532;-76
2021/09/09 17:53:10;;;;;;;8.43;5.27;;;;;;;;;;4862513;29;20240;-77
2021/09/09 17:56:18;;;;;;;10.50;5.67;;;;;;;;;;4861734;29;20187;-76
2021/09/09 17:59:22;;;;;;;16.57;5.70;;;;;;;;;;4843352;29;20187;-77
2021/09/09 18:02:26;;;;;;;14.30;5.63;;;;;;;;;;4844424;29;20707;-77
2021/09/09 18:05:30;;;;;;;10.60;5.53;;;;;;;;;;4879956;29;20226;-78
2021/09/09 18:08:34;;;;;;;8.77;5.53;;;;;;;;;;4857980;29;20230;-78
2021/09/09 18:11:38;;;;;;;10.63;6.10;;;;;;;;;;4853870;29;20238;-77
2021/09/09 18:14:42;;;;;;;6.17;5.40;;;;;;;;;;4832512;29;20549;-78